Nesconset, NY (11767)

6:11 PM EDT on March 31, 2015 (GMT -0400)
Nesconset Extreme | | Change Station
CLOSE
Current Station
Personal Weather Station
Location: Nesconset, NY
Elevation: 92 ft
Nearby Weather Stations

Elev 92 ft 40.85 °N, 73.13 °W | Updated 8 seconds ago

Rain
Rain
35.8 °F
Feels Like 36 °F
N
0.0
Wind Variable Wind from NNE
Gusts 0.0 mph

Today
High -- | Low -- °F
--% Chance of Precip.
Yesterday
High -- | Low -- °F
Precip. -- in
6:38 AM 7:16 PM
Waxing Gibbous, 89% visible
Pressure 29.75 in
Visibility 3.0 miles
Clouds Mostly Cloudy 700 ft
Mostly Cloudy 7500 ft
Overcast 10000 ft
Windchill 36 °F
Dew Point 33 °F
Humidity 91%
Rainfall 0.11 in
Snow Depth Not available.
UV 0 out of 12
Pollen 7.00 out of 12
Air Quality Not available.
Flu Activity Not available.
METAR KISP 312156Z 01008KT 3SM BKN007 BKN075 OVC100 03/01 A2975 RMK AO2 SFC VIS 7 RAE42 SLP073 P0000 T00330011

More Conditions Fewer Conditions

Pressure 29.75 in
Visibility 3.0 miles
Clouds Mostly Cloudy 700 ft
Mostly Cloudy 7500 ft
Overcast 10000 ft
Windchill 36 °F
Dew Point 33 °F
Humidity 91%
Rainfall 0.11 in
Snow Depth Not available.
UV 0 out of 12
Pollen 7.00 out of 12
Air Quality Not available.
Flu Activity Not available.
METAR KISP 312156Z 01008KT 3SM BKN007 BKN075 OVC100 03/01 A2975 RMK AO2 SFC VIS 7 RAE42 SLP073 P0000 T00330011

More Conditions Fewer Conditions

10-Day Weather Forecast

Almanac

Astronomy

Mar. 31, 2015 Rise Set
Actual Time
Civil Twilight
Nautical Twilight
Astronomical Twilight
Moon
Length of Visible Light
Length of Day
Tomorrow will be .
, % of the Moon is Illuminated

Today's Extremes

State Highs State Lows

Community

WunderPhotos

Upload Photos

1,809,853 photos uploaded!

WunderBlogs® & News

Nearby

Air Quality

  Air Quality AQ Index Pollutant
Not available.

Snow Depth

Station Depth Elevation

Earthquake Activity

City Distance Mag. Time & Date
Minimum magnitude displayed is 2.5.

Coastal Water Temperatures

Place Temperature

Stations

Nearby Weather Stations

Station Location Temp. Windchill Dew Point Humidity Wind Precip. Elev Updated Type